Dunedin, FL (34698)

4:09 PM EST on February 06, 2016 (GMT -0500)
E of Dunedin Marina | | Change Station
CLOSE
Current Station
Personal Weather Station
Location: Dunedin, FL
Elevation: 25 ft
Nearby Weather Stations

Elev 25 ft 28.01 °N, 82.78 °W | Updated 4 minutes ago

Rain
Rain
53.8 °F
Feels Like 53.8 °F
N
3.0
Wind Variable Wind from NNW
Gusts 3.0 mph

Today
High -- | Low -- °F
--% Chance of Precip.
Yesterday
High -- | Low -- °F
Precip. -- in
Pressure 30.12 in
Visibility 2.0 miles
Clouds Mostly Cloudy 900 ft
Mostly Cloudy 2700 ft
Overcast 7500 ft
Dew Point 54 °F
Humidity 100%
Rainfall 0.00 in
Snow Depth Not available.
7:15 AM 6:15 PM
Waning Crescent, 4% visible
METAR KPIE 062053Z 32011KT 2SM -RA BR BKN009 BKN027 OVC075 12/11 A3012 RMK AO2 SLP197 P0005 60008 T01220111 56014
Pressure 30.12 in
Visibility 2.0 miles
Clouds Mostly Cloudy 900 ft
Mostly Cloudy 2700 ft
Overcast 7500 ft
Dew Point 54 °F
Humidity 100%
Rainfall 0.00 in
Snow Depth Not available.
7:15 AM 6:15 PM
Waning Crescent, 4% visible
METAR KPIE 062053Z 32011KT 2SM -RA BR BKN009 BKN027 OVC075 12/11 A3012 RMK AO2 SLP197 P0005 60008 T01220111 56014

10-Day Weather Forecast

Almanac

Astronomy

Feb. 06, 2016 Rise Set
Actual Time
Civil Twilight
Nautical Twilight
Astronomical Twilight
Moon
Length of Visible Light
Length of Day
Tomorrow will be .
, % of the Moon is Illuminated

Today's Extremes

State Highs State Lows

Community

WunderPhotos

Upload Photos

1,891,050 photos uploaded!

WunderBlog® & News

Nearby

Air Quality

  Air Quality AQ Index Pollutant
Not available.

Snow Depth

Station Depth Elevation

Earthquake Activity

City Distance Mag. Time & Date
Minimum magnitude displayed is 2.5.

Coastal Water Temperatures

Place Temperature

Stations

Nearby Weather Stations

Station Location Temp. Windchill Dew Point Humidity Wind Precip. Elev Updated Type
                   

Watches & Warnings

There are currently no watches in effect.